Time;durP1;ratioP1;P1;durP2;ratioP2;P2;SDS_P1;SDS_P2;PMS_P1;PMS_P2;Temp;Humidity;BMP_temperature;BMP_pressure;BME280_temperature;BME280_humidity;BME280_pressure;Samples;Min_cycle;Max_cycle;Signal;HPM_P1;HPM_P2
2024/01/25 00:02:05;;;;;;;32.50;7.35;;;;;;;6.40;100.00;101347.16;5005325;28;20216;-42
2024/01/25 00:04:30;;;;;;;33.75;5.85;;;;;;;6.30;100.00;101345.53;5007046;28;20200;-42
2024/01/25 00:06:56;;;;;;;30.77;5.45;;;;;;;6.34;100.00;101357.00;5005451;28;20209;-42
2024/01/25 00:09:22;;;;;;;40.40;5.88;;;;;;;6.30;100.00;101348.19;5007873;28;20197;-43
2024/01/25 00:11:47;;;;;;;41.03;6.10;;;;;;;6.35;100.00;101335.69;5004767;28;20203;-41
2024/01/25 00:14:12;;;;;;;34.88;5.40;;;;;;;6.40;100.00;101354.25;5004696;28;20271;-42
2024/01/25 00:16:41;;;;;;;35.58;6.65;;;;;;;6.34;100.00;101333.03;5010207;28;20686;-41
2024/01/25 00:19:07;;;;;;;47.28;7.57;;;;;;;6.33;100.00;101368.56;5004755;28;20215;-40
2024/01/25 00:21:33;;;;;;;31.58;5.85;;;;;;;6.34;100.00;101349.91;5007420;28;20635;-44
2024/01/25 00:23:58;;;;;;;38.10;6.13;;;;;;;6.28;100.00;101339.34;5005194;28;20185;-43
2024/01/25 00:26:23;;;;;;;32.50;5.85;;;;;;;6.31;100.00;101357.03;5004921;28;20204;-43
2024/01/25 00:28:49;;;;;;;34.58;6.13;;;;;;;6.22;100.00;101366.00;5005134;28;20192;-40
2024/01/25 00:31:14;;;;;;;31.55;5.25;;;;;;;6.27;100.00;101374.81;5010449;28;20180;-44
2024/01/25 00:33:40;;;;;;;35.88;5.72;;;;;;;6.30;100.00;101368.59;5004342;28;20181;-40
2024/01/25 00:36:06;;;;;;;47.85;6.80;;;;;;;6.34;100.00;101384.50;5005675;28;20212;-41
2024/01/25 00:38:32;;;;;;;32.58;6.10;;;;;;;6.35;100.00;101404.00;5006409;28;20184;-40
2024/01/25 00:40:57;;;;;;;36.10;6.63;;;;;;;6.29;100.00;101377.47;5004224;28;20188;-42
2024/01/25 00:43:23;;;;;;;37.17;6.15;;;;;;;6.32;100.00;101380.06;5010284;28;20189;-43
2024/01/25 00:45:49;;;;;;;34.40;5.55;;;;;;;6.34;100.00;101396.91;4987848;28;20205;-44
2024/01/25 00:48:15;;;;;;;34.30;5.07;;;;;;;6.33;100.00;101398.69;4988294;28;20610;-42
2024/01/25 00:50:41;;;;;;;28.50;5.32;;;;;;;6.35;100.00;101393.38;5004785;28;20184;-40
2024/01/25 00:53:07;;;;;;;39.83;5.85;;;;;;;6.34;100.00;101391.59;5004501;28;20610;-40
2024/01/25 00:55:32;;;;;;;36.63;5.60;;;;;;;6.29;100.00;101409.41;5004033;28;20708;-42
2024/01/25 00:57:59;;;;;;;29.70;5.18;;;;;;;6.24;100.00;101393.47;5005726;28;20188;-43
2024/01/25 01:00:25;;;;;;;36.75;6.28;;;;;;;6.29;100.00;101407.59;5003585;28;20220;-41
2024/01/25 01:02:53;;;;;;;31.60;5.50;;;;;;;6.24;100.00;101416.56;5005604;28;20705;-41
2024/01/25 01:05:19;;;;;;;28.75;6.10;;;;;;;6.27;100.00;101420.06;5005624;28;20356;-40
2024/01/25 01:07:45;;;;;;;31.33;6.03;;;;;;;6.23;100.00;101430.75;5006678;28;20197;-41
2024/01/25 01:10:10;;;;;;;33.13;5.72;;;;;;;6.29;100.00;101436.88;5000044;28;20630;-42
2024/01/25 01:12:36;;;;;;;36.63;5.20;;;;;;;6.23;100.00;101436.97;5007411;28;20238;-43
2024/01/25 01:15:02;;;;;;;25.50;5.35;;;;;;;6.18;100.00;101436.13;5007659;28;20212;-43
2024/01/25 01:17:27;;;;;;;31.42;6.65;;;;;;;6.25;100.00;101432.50;5005113;28;20597;-41
2024/01/25 01:19:53;;;;;;;35.42;6.03;;;;;;;6.25;100.00;101427.16;5000507;28;20655;-41
2024/01/25 01:22:18;;;;;;;34.80;5.35;;;;;;;6.29;100.00;101446.66;5006375;28;20254;-42
2024/01/25 01:24:44;;;;;;;30.63;5.10;;;;;;;6.27;100.00;101440.47;5001388;28;20187;-41
2024/01/25 01:27:09;;;;;;;38.80;5.85;;;;;;;6.24;100.00;101453.81;5002216;28;20585;-43
2024/01/25 01:29:35;;;;;;;33.92;6.10;;;;;;;6.14;100.00;101451.25;4984594;28;20188;-42
2024/01/25 01:32:00;;;;;;;35.63;6.00;;;;;;;6.20;100.00;101463.59;5004592;28;20216;-42
2024/01/25 01:34:26;;;;;;;37.83;6.13;;;;;;;6.17;100.00;101461.84;5003546;28;20188;-41
2024/01/25 01:36:52;;;;;;;31.50;5.22;;;;;;;6.16;100.00;101448.56;5001054;28;20319;-42
2024/01/25 01:39:18;;;;;;;36.13;6.13;;;;;;;6.12;100.00;101449.47;5003670;28;20548;-40
2024/01/25 01:41:48;;;;;;;33.38;5.18;;;;;;;6.13;100.00;101462.78;5011514;28;20219;-42
2024/01/25 01:44:14;;;;;;;32.10;5.70;;;;;;;6.09;100.00;101439.75;4998958;28;20185;-39
2024/01/25 01:46:42;;;;;;;37.13;5.45;;;;;;;6.20;100.00;101484.88;5005157;28;20257;-43
2024/01/25 01:49:11;;;;;;;35.65;4.78;;;;;;;6.31;100.00;101472.34;5003674;28;20540;-41
2024/01/25 01:51:37;;;;;;;26.38;4.82;;;;;;;6.25;100.00;101471.53;5007009;28;20185;-42
2024/01/25 01:54:06;;;;;;;32.58;5.28;;;;;;;6.18;100.00;101476.91;4999993;28;20235;-41
2024/01/25 01:56:32;;;;;;;25.33;5.15;;;;;;;6.19;100.00;101478.69;5009840;28;20235;-42
2024/01/25 01:59:00;;;;;;;26.33;5.85;;;;;;;6.24;100.00;101488.41;5001256;28;20181;-40
2024/01/25 02:01:25;;;;;;;29.95;4.68;;;;;;;6.24;100.00;101494.59;5006988;28;20184;-42
2024/01/25 02:03:51;;;;;;;35.90;5.85;;;;;;;6.21;100.00;101502.63;5001263;28;20639;-43
2024/01/25 02:06:17;;;;;;;25.45;4.68;;;;;;;6.14;100.00;101488.50;5003843;28;20302;-43
2024/01/25 02:08:43;;;;;;;32.30;5.60;;;;;;;6.16;100.00;101505.31;4998711;28;20267;-43
2024/01/25 02:11:12;;;;;;;31.95;5.75;;;;;;;6.18;100.00;101508.84;5000569;28;20695;-41
2024/01/25 02:13:37;;;;;;;29.77;5.78;;;;;;;6.13;100.00;101505.34;5002399;28;20260;-43
2024/01/25 02:16:04;;;;;;;34.25;6.30;;;;;;;6.16;100.00;101518.59;4997195;28;20710;-43
2024/01/25 02:18:30;;;;;;;31.38;5.28;;;;;;;6.14;100.00;101507.13;5001153;28;20468;-44
2024/01/25 02:20:55;;;;;;;32.67;5.32;;;;;;;6.15;100.00;101514.19;4987066;28;20268;-44
2024/01/25 02:23:21;;;;;;;32.58;5.68;;;;;;;6.14;100.00;101504.47;5001582;28;20207;-41
2024/01/25 02:25:46;;;;;;;35.75;5.13;;;;;;;6.09;100.00;101508.03;5000324;28;20197;-45
2024/01/25 02:28:12;;;;;;;37.75;5.03;;;;;;;6.06;100.00;101508.09;4998390;28;20189;-39
2024/01/25 02:30:37;;;;;;;30.80;4.43;;;;;;;6.16;100.00;101497.31;4997706;28;20279;-44
2024/01/25 02:33:03;;;;;;;29.33;4.88;;;;;;;6.18;100.00;101519.47;5000595;28;20271;-43
2024/01/25 02:35:28;;;;;;;34.78;5.63;;;;;;;6.07;100.00;101500.06;4998900;28;20212;-43
2024/01/25 02:37:54;;;;;;;36.42;5.25;;;;;;;6.12;100.00;101494.69;4999368;28;20216;-45
2024/01/25 02:40:19;;;;;;;28.88;5.18;;;;;;;6.21;100.00;101515.03;5006623;28;20184;-42
2024/01/25 02:42:45;;;;;;;28.13;4.60;;;;;;;6.12;100.00;101519.56;4990829;28;20184;-41
2024/01/25 02:45:10;;;;;;;36.03;6.22;;;;;;;6.17;100.00;101525.72;4998418;28;20189;-42
2024/01/25 02:47:36;;;;;;;23.50;4.60;;;;;;;6.14;100.00;101523.09;4988963;28;20554;-42
2024/01/25 02:50:01;;;;;;;33.85;5.57;;;;;;;6.05;100.00;101527.59;4998764;28;20382;-42
2024/01/25 02:52:26;;;;;;;30.38;5.25;;;;;;;6.07;100.00;101542.63;5011212;28;20216;-43
2024/01/25 02:54:52;;;;;;;27.38;4.85;;;;;;;6.06;100.00;101548.00;4983171;28;20189;-44
2024/01/25 02:57:18;;;;;;;40.72;6.65;;;;;;;6.08;100.00;101549.75;5007327;28;20267;-42
2024/01/25 02:59:43;;;;;;;33.08;5.30;;;;;;;6.04;100.00;101552.44;5002327;28;20538;-43
2024/01/25 03:02:09;;;;;;;32.60;5.18;;;;;;;6.14;100.00;101554.09;5004458;28;20773;-41
2024/01/25 03:04:34;;;;;;;32.30;4.65;;;;;;;6.13;100.00;101570.97;5000363;28;20185;-39
2024/01/25 03:07:00;;;;;;;36.92;5.07;;;;;;;6.12;100.00;101546.16;5000256;28;20232;-40
2024/01/25 03:09:25;;;;;;;29.98;4.78;;;;;;;6.09;100.00;101564.78;5000913;28;20189;-44
2024/01/25 03:11:51;;;;;;;36.45;3.90;;;;;;;6.17;100.00;101560.28;5000210;28;20197;-43
2024/01/25 03:14:16;;;;;;;34.72;4.75;;;;;;;6.11;100.00;101570.97;5001896;28;20718;-45
2024/01/25 03:16:43;;;;;;;33.97;5.78;;;;;;;6.16;100.00;101563.84;5008234;28;20216;-42
2024/01/25 03:19:08;;;;;;;33.80;4.68;;;;;;;6.16;100.00;101555.84;5005529;28;20200;-42
2024/01/25 03:21:34;;;;;;;30.30;4.53;;;;;;;6.12;100.00;101566.53;5001686;28;20192;-41
2024/01/25 03:23:59;;;;;;;31.38;5.85;;;;;;;6.13;100.00;101553.22;5010007;28;20200;-41
2024/01/25 03:26:27;;;;;;;29.77;4.82;;;;;;;6.08;100.00;101565.69;5003613;28;20602;-43
2024/01/25 03:28:53;;;;;;;26.17;5.25;;;;;;;6.02;100.00;101573.72;5005010;28;20181;-43
2024/01/25 03:31:18;;;;;;;28.98;4.18;;;;;;;6.20;100.00;101586.00;5003325;28;20703;-42
2024/01/25 03:33:43;;;;;;;24.27;4.57;;;;;;;6.16;100.00;101594.88;5003167;28;20576;-46
2024/01/25 03:36:09;;;;;;;24.35;5.03;;;;;;;6.19;100.00;101587.78;5004448;28;20580;-42
2024/01/25 03:38:34;;;;;;;30.42;4.82;;;;;;;6.18;100.00;101591.31;5002190;28;20651;-41
2024/01/25 03:41:00;;;;;;;29.30;4.55;;;;;;;6.22;100.00;101596.63;5003694;28;20204;-40
2024/01/25 03:43:26;;;;;;;26.00;4.13;;;;;;;6.19;100.00;101601.09;4999280;28;20196;-43
2024/01/25 03:45:51;;;;;;;25.25;4.55;;;;;;;6.21;100.00;101586.88;4998299;28;20188;-41
2024/01/25 03:48:17;;;;;;;28.67;4.80;;;;;;;6.14;100.00;101596.69;5000202;28;20185;-42
2024/01/25 03:50:43;;;;;;;31.05;5.55;;;;;;;6.14;100.00;101599.34;4999786;28;20209;-42
2024/01/25 03:53:08;;;;;;;26.65;4.82;;;;;;;6.12;100.00;101607.34;4997251;28;20267;-42
2024/01/25 03:55:34;;;;;;;32.60;5.90;;;;;;;6.11;100.00;101633.97;4997735;28;20579;-42
2024/01/25 03:57:59;;;;;;;36.38;4.72;;;;;;;6.05;100.00;101639.31;4999401;28;20181;-42
2024/01/25 04:00:25;;;;;;;32.33;4.22;;;;;;;6.08;100.00;101645.50;5002881;28;20185;-44
2024/01/25 04:02:50;;;;;;;24.73;4.88;;;;;;;6.16;100.00;101664.06;5000880;28;20262;-41
2024/01/25 04:05:16;;;;;;;32.97;4.47;;;;;;;6.17;100.00;101656.09;4999708;28;20232;-42
2024/01/25 04:07:42;;;;;;;27.90;4.90;;;;;;;6.17;100.00;101656.09;4999778;28;20181;-42
2024/01/25 04:10:07;;;;;;;21.92;4.18;;;;;;;6.20;100.00;101649.84;4998852;28;20590;-43
2024/01/25 04:12:33;;;;;;;25.10;4.15;;;;;;;6.16;100.00;101667.59;4985093;28;20189;-44
2024/01/25 04:14:59;;;;;;;25.67;4.82;;;;;;;6.14;100.00;101664.09;5003154;28;20984;-42
2024/01/25 04:17:24;;;;;;;27.25;4.90;;;;;;;6.17;100.00;101671.16;4988224;28;20258;-43
2024/01/25 04:19:51;;;;;;;29.10;5.00;;;;;;;6.11;100.00;101666.75;4981084;28;20190;-43
2024/01/25 04:22:16;;;;;;;28.58;4.80;;;;;;;6.14;100.00;101665.84;5000805;28;20177;-39
2024/01/25 04:24:43;;;;;;;22.65;4.45;;;;;;;6.11;100.00;101681.84;4997196;28;20213;-43
2024/01/25 04:27:12;;;;;;;23.85;4.05;;;;;;;6.00;100.00;101668.59;5003352;28;20197;-43
2024/01/25 04:29:39;;;;;;;30.02;4.55;;;;;;;6.05;100.00;101687.19;4998744;28;20531;-43
2024/01/25 04:32:05;;;;;;;24.50;4.18;;;;;;;6.14;100.00;101682.72;4999518;28;20729;-42
2024/01/25 04:34:31;;;;;;;32.63;4.57;;;;;;;6.11;100.00;101677.41;5002117;28;20212;-43
2024/01/25 04:36:56;;;;;;;25.70;4.47;;;;;;;6.08;100.00;101690.75;4997160;28;20220;-41
2024/01/25 04:39:22;;;;;;;30.65;5.35;;;;;;;6.10;100.00;101685.38;5001012;28;20189;-40
2024/01/25 04:41:47;;;;;;;31.50;5.30;;;;;;;6.09;100.00;101697.81;4988745;28;20260;-39
2024/01/25 04:44:13;;;;;;;31.65;4.85;;;;;;;6.11;100.00;101701.34;4998054;28;20191;-42
2024/01/25 04:46:38;;;;;;;25.00;4.40;;;;;;;6.06;100.00;101699.63;5000905;28;20196;-41
2024/01/25 04:49:04;;;;;;;25.13;4.10;;;;;;;6.07;100.00;101691.63;5000567;28;20247;-40
2024/01/25 04:51:29;;;;;;;27.95;4.72;;;;;;;6.04;100.00;101723.56;5001082;28;20189;-41
2024/01/25 04:53:55;;;;;;;30.45;4.50;;;;;;;6.07;100.00;101735.97;5004018;28;20216;-41
2024/01/25 04:56:20;;;;;;;29.20;4.85;;;;;;;6.06;100.00;101736.88;5002531;28;20212;-40
2024/01/25 04:58:46;;;;;;;33.55;4.95;;;;;;;6.02;100.00;101743.09;5003121;28;20187;-43
2024/01/25 05:01:11;;;;;;;28.52;4.65;;;;;;;6.05;100.00;101748.38;5007555;28;20189;-40
2024/01/25 05:03:37;;;;;;;20.77;4.20;;;;;;;6.00;100.00;101747.53;5003041;28;20204;-39
2024/01/25 05:06:03;;;;;;;31.65;4.63;;;;;;;6.10;100.00;101741.25;4998077;28;20201;-43
2024/01/25 05:08:28;;;;;;;23.83;4.15;;;;;;;6.06;100.00;101747.50;5000763;28;20184;-42
2024/01/25 05:10:54;;;;;;;25.95;4.53;;;;;;;6.05;100.00;101754.56;4995932;28;20193;-40
2024/01/25 05:13:19;;;;;;;24.50;3.53;;;;;;;5.97;100.00;101753.75;4999724;28;20180;-41
2024/01/25 05:15:45;;;;;;;25.48;4.50;;;;;;;5.97;100.00;101759.06;4988011;28;20256;-40
2024/01/25 05:18:10;;;;;;;31.63;4.55;;;;;;;5.95;100.00;101763.50;4988988;28;20185;-40
2024/01/25 05:20:37;;;;;;;25.17;4.78;;;;;;;5.99;100.00;101773.22;5003729;28;20188;-41
2024/01/25 05:23:03;;;;;;;22.05;4.18;;;;;;;6.01;100.00;101770.56;4996912;28;20184;-43
2024/01/25 05:25:30;;;;;;;22.35;4.00;;;;;;;5.98;100.00;101777.66;4990701;28;20243;-43
2024/01/25 05:27:56;;;;;;;19.42;4.03;;;;;;;6.01;100.00;101762.59;5001183;28;20272;-42
2024/01/25 05:30:22;;;;;;;26.92;4.50;;;;;;;5.98;100.00;101779.44;5000800;28;20519;-41
2024/01/25 05:32:49;;;;;;;24.83;4.03;;;;;;;6.05;100.00;101785.63;5002868;28;20169;-43
2024/01/25 05:35:15;;;;;;;20.75;3.85;;;;;;;5.95;100.00;101798.97;4998769;28;20177;-46
2024/01/25 05:37:41;;;;;;;22.27;4.15;;;;;;;5.99;100.00;101783.84;4999938;28;20270;-43
2024/01/25 05:40:07;;;;;;;21.65;4.57;;;;;;;6.02;100.00;101823.78;5000239;28;20185;-41
2024/01/25 05:42:32;;;;;;;25.90;4.55;;;;;;;5.97;100.00;101799.84;5004564;28;20173;-43
2024/01/25 05:44:58;;;;;;;21.02;4.10;;;;;;;5.96;100.00;101811.38;5000808;28;20184;-42
2024/01/25 05:47:24;;;;;;;34.65;4.72;;;;;;;6.01;100.00;101821.97;5008129;28;20600;-42
2024/01/25 05:49:49;;;;;;;24.42;4.20;;;;;;;5.94;100.00;101818.47;4999473;28;20188;-41
2024/01/25 05:52:15;;;;;;;24.25;4.25;;;;;;;5.88;100.00;101814.91;4999270;28;20180;-43
2024/01/25 05:54:40;;;;;;;27.65;4.28;;;;;;;5.98;100.00;101816.69;4999816;28;20177;-43
2024/01/25 05:57:06;;;;;;;21.10;3.53;;;;;;;5.91;100.00;101828.22;4984400;28;20244;-42
2024/01/25 05:59:32;;;;;;;23.30;4.30;;;;;;;5.92;100.00;101825.53;4999820;28;20315;-41
2024/01/25 06:01:57;;;;;;;28.25;4.03;;;;;;;5.86;100.00;101816.69;4997761;28;20235;-44
2024/01/25 06:04:22;;;;;;;31.75;4.95;;;;;;;5.87;100.00;101818.47;4992163;28;20200;-42
2024/01/25 06:06:48;;;;;;;21.73;4.43;;;;;;;5.87;100.00;101837.09;5001901;28;20504;-41
2024/01/25 06:09:16;;;;;;;27.80;5.15;;;;;;;5.87;100.00;101829.97;5002462;28;20531;-42
2024/01/25 06:11:42;;;;;;;28.70;4.30;;;;;;;5.86;100.00;101838.88;5001059;28;20315;-43
2024/01/25 06:14:08;;;;;;;19.50;3.45;;;;;;;5.84;100.00;101835.31;5008225;28;20185;-41
2024/01/25 06:16:34;;;;;;;23.35;4.05;;;;;;;5.85;100.00;101834.41;5010342;28;20680;-41
2024/01/25 06:19:01;;;;;;;25.00;4.28;;;;;;;5.84;100.00;101845.06;4998031;28;20188;-41
2024/01/25 06:21:26;;;;;;;24.10;3.83;;;;;;;5.77;100.00;101845.09;5006944;28;20594;-40
2024/01/25 06:23:52;;;;;;;20.58;3.65;;;;;;;5.79;100.00;101839.75;5004653;28;20177;-43
2024/01/25 06:26:17;;;;;;;25.00;4.97;;;;;;;5.78;100.00;101840.66;5005942;28;20208;-41
2024/01/25 06:28:43;;;;;;;28.75;4.60;;;;;;;5.78;100.00;101838.00;5013490;28;20646;-39
2024/01/25 06:31:08;;;;;;;21.92;3.45;;;;;;;5.80;100.00;101852.16;5007582;28;20184;-41
2024/01/25 06:33:34;;;;;;;23.77;3.65;;;;;;;5.82;100.00;101842.41;5004991;28;20192;-41
2024/01/25 06:36:00;;;;;;;20.00;4.45;;;;;;;5.89;100.00;101840.63;5004258;28;20220;-42
2024/01/25 06:38:25;;;;;;;23.08;4.93;;;;;;;5.86;100.00;101853.91;4993781;28;20682;-44
2024/01/25 06:40:51;;;;;;;28.17;4.60;;;;;;;5.91;100.00;101849.50;5005542;28;20215;-40
2024/01/25 06:43:16;;;;;;;26.42;3.60;;;;;;;5.92;100.00;101837.94;5007240;28;20644;-45
2024/01/25 06:45:42;;;;;;;31.88;4.22;;;;;;;5.94;100.00;101854.78;4971779;28;20193;-44
2024/01/25 06:48:10;;;;;;;25.70;3.38;;;;;;;5.92;100.00;101853.91;4991696;28;20641;-44
2024/01/25 06:50:36;;;;;;;25.90;3.95;;;;;;;5.91;100.00;101866.31;5008588;28;20195;-44
2024/01/25 06:53:02;;;;;;;20.60;3.47;;;;;;;5.90;100.00;101858.34;5001008;28;20197;-44
2024/01/25 06:55:28;;;;;;;23.85;3.80;;;;;;;5.83;100.00;101867.22;5004052;28;20207;-40
2024/01/25 06:57:53;;;;;;;17.75;4.03;;;;;;;5.85;100.00;101857.47;4987205;28;20228;-42
2024/01/25 07:00:20;;;;;;;23.38;3.83;;;;;;;5.77;100.00;101879.66;5003024;28;20347;-44
2024/01/25 07:02:46;;;;;;;26.20;4.93;;;;;;;5.77;100.00;101882.31;4998341;28;20188;-41
2024/01/25 07:05:12;;;;;;;29.35;4.13;;;;;;;5.82;100.00;101897.38;5003931;28;20276;-42
2024/01/25 07:07:38;;;;;;;24.38;4.00;;;;;;;5.85;100.00;101892.94;5002509;28;20259;-42
2024/01/25 07:10:06;;;;;;;26.00;3.90;;;;;;;5.84;100.00;101903.56;5002894;28;20683;-43
2024/01/25 07:12:31;;;;;;;19.48;2.83;;;;;;;5.89;100.00;101899.13;5007930;28;20215;-41
2024/01/25 07:14:56;;;;;;;28.23;3.97;;;;;;;5.82;100.00;101911.56;5003072;28;20173;-41
2024/01/25 07:17:22;;;;;;;18.45;4.05;;;;;;;5.85;100.00;101922.19;5001202;28;20220;-42
2024/01/25 07:19:48;;;;;;;18.95;3.85;;;;;;;5.77;100.00;101916.88;5003715;28;20276;-40
2024/01/25 07:22:15;;;;;;;30.48;4.63;;;;;;;5.79;100.00;101919.53;5003400;28;20649;-41
2024/01/25 07:24:41;;;;;;;21.48;4.15;;;;;;;5.73;100.00;101928.41;5000983;28;20204;-42
2024/01/25 07:27:06;;;;;;;16.88;4.53;;;;;;;5.81;100.00;101938.16;5003598;28;20202;-42
2024/01/25 07:29:31;;;;;;;22.85;4.25;;;;;;;5.73;100.00;101930.19;4998066;28;20611;-41
2024/01/25 07:31:57;;;;;;;20.15;3.42;;;;;;;5.66;100.00;101937.25;4983438;28;20212;-40
2024/01/25 07:34:22;;;;;;;19.17;3.22;;;;;;;5.68;100.00;101935.47;5000500;28;20235;-40
2024/01/25 07:36:48;;;;;;;17.58;3.60;;;;;;;5.72;100.00;101937.25;4989167;28;20213;-43
2024/01/25 07:39:13;;;;;;;22.60;3.33;;;;;;;5.66;100.00;101947.00;4999762;28;20631;-41
2024/01/25 07:41:39;;;;;;;29.35;4.55;;;;;;;5.72;100.00;101945.22;5001120;28;20197;-41
2024/01/25 07:44:05;;;;;;;19.75;3.80;;;;;;;5.70;100.00;101951.44;5002395;28;20182;-40
2024/01/25 07:46:31;;;;;;;25.17;4.25;;;;;;;5.69;100.00;101960.31;5003472;28;20231;-42
2024/01/25 07:48:56;;;;;;;26.98;3.90;;;;;;;5.64;100.00;101962.97;4997124;28;20173;-46
2024/01/25 07:51:22;;;;;;;22.77;4.07;;;;;;;5.66;100.00;101966.50;4998114;28;20228;-43
2024/01/25 07:53:48;;;;;;;25.05;4.03;;;;;;;5.68;100.00;101967.38;5004984;28;20604;-44
2024/01/25 07:56:13;;;;;;;23.58;3.70;;;;;;;5.71;100.00;101974.50;5002197;28;20624;-43
2024/01/25 07:58:39;;;;;;;22.58;3.55;;;;;;;5.77;100.00;101978.06;4989721;28;20207;-42
2024/01/25 08:01:08;;;;;;;20.25;4.22;;;;;;;5.70;100.00;101988.66;5002032;28;20315;-43
2024/01/25 08:03:34;;;;;;;25.27;3.95;;;;;;;5.67;100.00;102000.19;5002797;28;20234;-42
2024/01/25 08:06:02;;;;;;;25.83;3.90;;;;;;;5.69;100.00;102001.09;5005085;28;20213;-42
2024/01/25 08:08:28;;;;;;;29.50;4.68;;;;;;;5.72;100.00;102016.16;4993779;28;20673;-41
2024/01/25 08:10:53;;;;;;;15.35;3.03;;;;;;;5.67;100.00;102029.44;4998801;28;20279;-44
2024/01/25 08:13:19;;;;;;;29.90;3.70;;;;;;;5.75;100.00;102016.13;4986878;28;20197;-41
2024/01/25 08:15:45;;;;;;;28.35;3.38;;;;;;;5.77;100.00;102031.25;5000203;28;20208;-40
2024/01/25 08:18:10;;;;;;;30.77;4.05;;;;;;;5.80;100.00;102021.50;5001422;28;20228;-45
2024/01/25 08:20:37;;;;;;;23.10;4.07;;;;;;;5.87;100.00;102018.81;4998892;28;20193;-40
2024/01/25 08:23:03;;;;;;;28.38;3.45;;;;;;;5.87;100.00;102023.25;5001817;28;20177;-42
2024/01/25 08:25:28;;;;;;;24.27;4.35;;;;;;;5.91;100.00;102031.25;5007572;28;20247;-41
2024/01/25 08:27:53;;;;;;;21.05;3.83;;;;;;;5.92;100.00;102035.66;5000448;28;20193;-42
2024/01/25 08:30:19;;;;;;;23.65;3.00;;;;;;;5.95;100.00;102021.53;5000362;28;20191;-44
2024/01/25 08:32:45;;;;;;;19.90;3.67;;;;;;;5.87;100.00;102025.91;5003662;28;20855;-46
2024/01/25 08:35:10;;;;;;;22.48;3.83;;;;;;;5.90;100.00;102040.13;5002245;28;20188;-43
2024/01/25 08:37:37;;;;;;;17.52;4.03;;;;;;;5.95;100.00;102032.16;5001193;28;20216;-42
2024/01/25 08:40:05;;;;;;;26.63;3.42;;;;;;;5.94;100.00;102035.66;5002209;28;20185;-42
2024/01/25 08:42:31;;;;;;;22.95;4.57;;;;;;;5.98;100.00;102037.47;5001065;28;20200;-42
2024/01/25 08:44:57;;;;;;;28.83;3.67;;;;;;;5.96;100.00;102044.56;5002459;28;20759;-41
2024/01/25 08:47:22;;;;;;;20.92;4.15;;;;;;;5.97;100.00;102051.69;4995662;28;20260;-43
2024/01/25 08:49:48;;;;;;;31.55;3.55;;;;;;;5.95;100.00;102056.09;5000684;28;20185;-44
2024/01/25 08:52:15;;;;;;;21.83;3.58;;;;;;;6.02;100.00;102051.69;5006480;28;20181;-44
2024/01/25 08:54:41;;;;;;;21.25;3.22;;;;;;;5.96;100.00;102047.22;5004871;28;20198;-41
2024/01/25 08:57:07;;;;;;;20.85;4.40;;;;;;;6.06;100.00;102061.44;4999665;28;20781;-41
2024/01/25 08:59:35;;;;;;;26.80;4.03;;;;;;;6.02;100.00;102068.53;5006018;28;20276;-40
2024/01/25 09:02:00;;;;;;;22.75;3.78;;;;;;;6.06;100.00;102053.47;4998994;28;20212;-44
2024/01/25 09:04:26;;;;;;;26.75;3.30;;;;;;;6.01;100.00;102050.75;5000053;28;20188;-43
2024/01/25 09:06:52;;;;;;;29.13;3.47;;;;;;;6.12;100.00;102053.44;5000115;28;20340;-42
2024/01/25 09:09:17;;;;;;;20.77;3.13;;;;;;;6.03;100.00;102058.75;5001845;28;20201;-44
2024/01/25 09:11:43;;;;;;;19.80;4.05;;;;;;;6.04;100.00;102071.19;4999510;28;20619;-41
2024/01/25 09:14:09;;;;;;;24.92;3.67;;;;;;;6.12;100.00;102072.06;5003453;28;20189;-42
2024/01/25 09:16:37;;;;;;;18.05;3.28;;;;;;;6.05;100.00;102084.47;5001596;28;20343;-42
2024/01/25 09:19:02;;;;;;;24.23;4.10;;;;;;;6.11;100.00;102070.28;5004254;28;20197;-42
2024/01/25 09:21:28;;;;;;;20.65;3.42;;;;;;;6.00;100.00;102072.94;4989807;28;20185;-46
2024/01/25 09:23:53;;;;;;;30.63;4.47;;;;;;;6.06;100.00;102088.03;5000839;28;20181;-42
2024/01/25 09:26:19;;;;;;;27.17;3.97;;;;;;;6.19;100.00;102073.84;5002211;28;20682;-42
2024/01/25 09:28:44;;;;;;;17.08;3.20;;;;;;;6.15;100.00;102070.28;5003842;28;20231;-43
2024/01/25 09:31:10;;;;;;;22.33;3.65;;;;;;;6.14;100.00;102068.53;5004617;28;20196;-40
2024/01/25 09:33:35;;;;;;;20.25;3.30;;;;;;;6.14;100.00;102055.22;5008395;28;20188;-42
2024/01/25 09:36:01;;;;;;;22.55;3.40;;;;;;;6.26;100.00;102072.94;5011696;28;20205;-41
2024/01/25 09:38:27;;;;;;;20.92;2.83;;;;;;;6.39;100.00;102076.50;5012260;28;20184;-40
2024/01/25 09:40:52;;;;;;;27.33;4.00;;;;;;;6.28;100.00;102072.97;5011852;23;20228;-42
2024/01/25 09:43:20;;;;;;;27.13;4.05;;;;;;;6.21;100.00;102087.13;5005010;28;20617;-41
2024/01/25 09:45:48;;;;;;;21.35;3.08;;;;;;;6.27;100.00;102089.81;5006742;28;20212;-43
2024/01/25 09:48:14;;;;;;;21.77;3.65;;;;;;;6.30;100.00;102088.03;5008874;28;20234;-43
2024/01/25 09:50:40;;;;;;;26.20;3.75;;;;;;;6.26;100.00;102094.25;5009114;28;20595;-42
2024/01/25 09:53:10;;;;;;;17.15;3.55;;;;;;;6.33;100.00;102090.69;5010677;28;20583;-41
2024/01/25 09:55:42;;;;;;;20.70;3.38;;;;;;;6.34;100.00;102088.91;5011492;28;20204;-42
2024/01/25 09:58:08;;;;;;;25.30;4.05;;;;;;;6.45;100.00;102091.56;5009606;28;20205;-42
2024/01/25 10:00:34;;;;;;;15.18;2.95;;;;;;;6.51;100.00;102086.25;5012356;28;20215;-43
2024/01/25 10:02:59;;;;;;;19.38;4.38;;;;;;;6.49;100.00;102080.91;5009888;28;20253;-43
2024/01/25 10:05:25;;;;;;;22.77;3.70;;;;;;;6.41;100.00;102085.38;5010466;28;20213;-44
2024/01/25 10:07:50;;;;;;;24.70;4.15;;;;;;;6.50;100.00;102105.78;5011458;28;20185;-43
2024/01/25 10:10:16;;;;;;;25.27;3.55;;;;;;;6.55;100.00;102093.34;5012306;28;20554;-42
2024/01/25 10:12:42;;;;;;;17.55;3.40;;;;;;;6.58;100.00;102096.91;5010917;28;20188;-42
2024/01/25 10:15:08;;;;;;;23.65;4.30;;;;;;;6.77;100.00;102094.19;5010745;28;21015;-44
2024/01/25 10:17:35;;;;;;;25.75;4.65;;;;;;;6.72;100.00;102102.19;5011294;28;20291;-44
2024/01/25 10:20:00;;;;;;;23.70;3.80;;;;;;;6.83;100.00;102101.28;5009637;28;20534;-40
2024/01/25 10:22:26;;;;;;;20.20;3.85;;;;;;;6.81;100.00;102099.50;5011694;28;20261;-43
2024/01/25 10:24:54;;;;;;;18.75;3.13;;;;;;;6.87;100.00;102106.59;5013835;28;20252;-44
2024/01/25 10:27:20;;;;;;;23.70;3.65;;;;;;;6.95;100.00;102118.13;5010108;28;20204;-43
2024/01/25 10:29:45;;;;;;;33.65;4.47;;;;;;;6.68;100.00;102111.06;5011952;28;20195;-42
2024/01/25 10:32:12;;;;;;;24.67;4.03;;;;;;;6.70;100.00;102109.28;5011017;28;20185;-41
2024/01/25 10:34:38;;;;;;;17.65;3.45;;;;;;;6.79;100.00;102113.72;5009113;28;21015;-43
2024/01/25 10:37:07;;;;;;;27.15;3.20;;;;;;;6.85;100.00;102118.16;5012827;28;20212;-43
2024/01/25 10:39:34;;;;;;;23.27;3.55;;;;;;;6.86;100.00;102120.78;5012775;28;20195;-44
2024/01/25 10:42:00;;;;;;;18.30;3.38;;;;;;;6.87;100.00;102127.91;5006679;28;20205;-43
2024/01/25 10:44:26;;;;;;;34.58;4.70;;;;;;;6.97;100.00;102120.78;5008311;28;20260;-43
2024/01/25 10:46:54;;;;;;;22.20;3.70;;;;;;;7.11;100.00;102134.97;5008913;28;20544;-42
2024/01/25 10:49:19;;;;;;;17.95;3.30;;;;;;;7.20;100.00;102134.03;5007299;28;20197;-46
2024/01/25 10:51:46;;;;;;;24.95;4.05;;;;;;;7.34;100.00;102134.00;5012922;28;20215;-46
2024/01/25 10:54:14;;;;;;;18.58;3.70;;;;;;;7.34;99.66;102132.19;5011632;28;20193;-42
2024/01/25 10:56:42;;;;;;;20.25;3.58;;;;;;;7.39;99.09;102138.41;5008649;28;20220;-45
2024/01/25 10:59:08;;;;;;;20.08;2.92;;;;;;;7.39;99.03;102126.84;5010114;28;20612;-43
2024/01/25 11:01:34;;;;;;;19.73;3.20;;;;;;;7.36;98.34;102137.53;5012178;28;20192;-44
2024/01/25 11:04:00;;;;;;;31.77;4.03;;;;;;;7.25;98.74;102123.38;5012218;28;20311;-43
2024/01/25 11:06:27;;;;;;;23.25;3.80;;;;;;;7.16;98.63;102122.50;5013598;28;20274;-43
2024/01/25 11:09:05;;;;;;;22.10;3.97;;;;;;;7.16;98.76;102117.16;5015482;28;20204;-44
2024/01/25 11:11:31;;;;;;;18.73;3.00;;;;;;;7.00;98.93;102116.34;5011517;28;20196;-43